Pagina principale
METAR-TAF:

METAR-TAF

Aeroporti :

Aeroporto Internazionale Hosea Kutako

Windhoek, Namibia

latitudine: 22-29S, longitudine: 017-28E, altezza: 1715 m

Osservazione

Il bollettino è stato emesso 50 minuti fa, alle 17:00 UTC
Vento 4 kt da est
Temperature 22°C
Umidità 12%
Pressione 1027 hPa
Visibilità 10 km o più
nessuna nube inferiore a 1500 m e nessun cumulonembo

METAR: FYWH 311700Z 08004KT CAVOK 22/M09 Q1027 NOSIG

Ora: 19:50 (17:50 UTC)

Previsione

Il bollettino è stato emesso 1 ora e 50 minuti fa, alle 16:00 UTC
Previsione valida dal 31 alle 18 UTC al 01 alle 18 UTC
Vento 4 kt da est/nord-est
Visibilità 10 km o più
nessuna nube inferiore a 1500 m e nessun cumulonembo
Evoluzione graduale
dal 31 alle 19 UTC al 31 alle 21 UTC
Vento 3 kt da ovest
Evoluzione graduale
dal 01 alle 08 UTC al 01 alle 10 UTC
Vento 10 kt da nord/nord-est

TAF: FYWH 311600Z 3118/0118 06004KT CAVOK BECMG 3119/3121 27003KT BECMG 0108/0110 03010KT

Osservazioni e previsioni meteorologiche di più di 4000 aeroporti (messaggi METAR e TAF).

Le stazioni disponibili sono rappresentate dai dischi gialli e rossi sulla carta.

Puntare il mouse per vedere il nome della stazione.

Clicca sopra per visualizzare le osservazioni e previsioni meteorologiche.

Per cambiare la mappa : fare clic sui pulsanti verdi con una croce nera per ingrandire, il pulsante verde con un trattino per diminuire, o sulla freccia verde per le mappe adiacenti.


METAR-TAF: